Aviation Digital Data Service (ADDS)

Output produced by TAFs form (1022 UTC 28 August 2016)
found at http://aviationweather.gov/adds/tafs/
 
KABQ 280521Z 2806/2906 34005KT P6SM BKN080 
     FM281300 32006KT P6SM SCT080 SCT120 
     FM282200 25007KT P6SM VCTS BKN080CB 
     FM290100 13008KT P6SM VCSH OVC070 
     FM290300 09009KT P6SM BKN080